createdAt,value
2023-05-10T00:00:08.686Z,8.94
2023-05-10T00:03:00.974Z,8.92
2023-05-10T00:05:29.048Z,8.91
2023-05-10T00:07:57.173Z,8.91
2023-05-10T00:10:25.146Z,8.90
2023-05-10T00:12:53.149Z,8.91
2023-05-10T00:15:21.123Z,8.92
2023-05-10T00:17:49.177Z,8.91
2023-05-10T00:20:17.747Z,8.89
2023-05-10T00:22:46.040Z,8.89
2023-05-10T00:25:13.992Z,8.86
2023-05-10T00:27:41.928Z,8.83
2023-05-10T00:30:10.386Z,8.80
2023-05-10T00:32:38.434Z,8.79
2023-05-10T00:35:06.784Z,8.77
2023-05-10T00:37:34.805Z,8.74
2023-05-10T00:40:02.755Z,8.69
2023-05-10T00:42:30.758Z,8.66
2023-05-10T00:44:58.969Z,8.63
2023-05-10T00:47:27.169Z,8.58
2023-05-10T00:49:55.521Z,8.55
2023-05-10T00:52:24.745Z,8.51
2023-05-10T00:54:53.338Z,8.48
2023-05-10T00:57:21.921Z,8.43
2023-05-10T00:59:50.078Z,8.41
2023-05-10T01:02:18.025Z,8.39
2023-05-10T01:04:46.279Z,8.35
2023-05-10T01:07:14.302Z,8.31
2023-05-10T01:09:42.504Z,8.29
2023-05-10T01:12:10.511Z,8.26
2023-05-10T01:14:38.690Z,8.25
2023-05-10T01:17:08.667Z,8.23
2023-05-10T01:19:38.687Z,8.21
2023-05-10T01:22:32.979Z,8.19
2023-05-10T01:25:13.101Z,8.16
2023-05-10T01:28:08.850Z,8.14
2023-05-10T01:30:48.850Z,8.13
2023-05-10T01:33:31.223Z,8.12
2023-05-10T01:36:27.241Z,8.13
2023-05-10T01:39:12.676Z,8.13
2023-05-10T01:42:03.214Z,8.14
2023-05-10T01:44:42.935Z,8.14
2023-05-10T01:47:39.137Z,8.15
2023-05-10T01:50:16.351Z,8.17
2023-05-10T01:52:50.869Z,8.18
2023-05-10T01:55:24.247Z,8.19
2023-05-10T01:57:56.343Z,8.19
2023-05-10T02:00:25.475Z,8.21
2023-05-10T02:02:54.506Z,8.22
2023-05-10T02:05:23.987Z,8.22
2023-05-10T02:07:53.385Z,8.23
2023-05-10T02:10:21.783Z,8.23
2023-05-10T02:12:51.823Z,8.23
2023-05-10T02:15:23.819Z,8.23
2023-05-10T02:17:53.578Z,8.21
2023-05-10T02:20:22.773Z,8.19
2023-05-10T02:22:52.603Z,8.17
2023-05-10T02:25:22.236Z,8.17
2023-05-10T02:27:52.767Z,8.17
2023-05-10T02:30:21.639Z,8.17
2023-05-10T02:32:52.755Z,8.17
2023-05-10T02:35:22.144Z,8.17
2023-05-10T02:37:51.545Z,8.17
2023-05-10T02:40:22.419Z,8.16
2023-05-10T02:42:53.396Z,8.17
2023-05-10T02:45:25.918Z,8.18
2023-05-10T02:47:53.863Z,8.18
2023-05-10T02:50:23.420Z,8.19
2023-05-10T02:52:53.294Z,8.20
2023-05-10T02:55:25.117Z,8.21
2023-05-10T02:57:59.478Z,8.20
2023-05-10T03:00:27.735Z,8.20
2023-05-10T03:02:56.216Z,8.20
2023-05-10T03:05:24.722Z,8.20
2023-05-10T03:07:53.930Z,8.19
2023-05-10T03:10:27.890Z,8.20
2023-05-10T03:13:20.916Z,8.22
2023-05-10T03:16:09.163Z,8.24
2023-05-10T03:18:49.354Z,8.26
2023-05-10T03:21:19.700Z,8.27
2023-05-10T03:23:57.484Z,8.28
2023-05-10T03:26:28.254Z,8.31
2023-05-10T03:29:04.281Z,8.34
2023-05-10T03:31:32.310Z,8.38
2023-05-10T03:34:00.878Z,8.45
2023-05-10T03:36:29.209Z,8.51
2023-05-10T03:38:57.307Z,8.63
2023-05-10T03:41:26.500Z,8.79
2023-05-10T03:43:55.069Z,8.97
2023-05-10T03:46:23.727Z,9.16
2023-05-10T03:48:51.793Z,9.39
2023-05-10T03:51:19.955Z,9.63
2023-05-10T03:53:47.894Z,9.84
2023-05-10T03:56:16.193Z,10.04
2023-05-10T03:58:44.147Z,10.28
2023-05-10T04:01:12.500Z,10.59
2023-05-10T04:03:40.672Z,10.96
2023-05-10T04:06:10.176Z,11.32
2023-05-10T04:08:38.216Z,11.63
2023-05-10T04:11:10.533Z,11.91
2023-05-10T04:13:39.069Z,12.25
2023-05-10T04:16:07.278Z,12.60
2023-05-10T04:18:35.684Z,12.95
2023-05-10T04:21:03.745Z,13.26
2023-05-10T04:23:31.633Z,13.57
2023-05-10T04:26:03.216Z,13.88
2023-05-10T04:28:31.068Z,14.20
2023-05-10T04:31:09.278Z,14.48
2023-05-10T04:33:38.100Z,14.77
2023-05-10T04:36:06.702Z,15.05
2023-05-10T04:38:35.472Z,15.31
2023-05-10T04:41:10.815Z,15.57
2023-05-10T04:43:39.534Z,15.83
2023-05-10T04:46:08.571Z,16.06
2023-05-10T04:48:36.599Z,16.26
2023-05-10T04:51:05.081Z,16.42
2023-05-10T04:53:33.627Z,16.58
2023-05-10T04:56:01.602Z,16.71
2023-05-10T04:58:29.633Z,16.86
2023-05-10T05:00:57.542Z,17.00
2023-05-10T05:03:25.509Z,17.14
2023-05-10T05:05:53.475Z,17.28
2023-05-10T05:08:21.409Z,17.43
2023-05-10T05:10:51.221Z,17.67
2023-05-10T05:13:19.664Z,18.00
2023-05-10T05:15:47.724Z,18.37
2023-05-10T05:18:15.676Z,18.70
2023-05-10T05:20:43.643Z,19.02
2023-05-10T05:23:11.498Z,19.29
2023-05-10T05:25:39.687Z,19.48
2023-05-10T05:28:07.626Z,19.64
2023-05-10T05:30:35.512Z,19.67
2023-05-10T05:33:03.849Z,19.68
2023-05-10T05:35:31.780Z,19.67
2023-05-10T05:37:59.698Z,19.66
2023-05-10T05:40:27.585Z,19.71
2023-05-10T05:42:55.495Z,19.80
2023-05-10T05:45:23.386Z,19.90
2023-05-10T05:47:51.325Z,19.96
2023-05-10T05:50:19.445Z,20.01
2023-05-10T05:52:47.428Z,20.03
2023-05-10T05:55:15.720Z,20.11
2023-05-10T05:57:43.848Z,20.21
2023-05-10T06:00:12.188Z,20.34
2023-05-10T06:02:42.972Z,20.43
2023-05-10T06:05:11.070Z,20.47
2023-05-10T06:07:39.093Z,20.63
2023-05-10T06:10:07.687Z,20.87
2023-05-10T06:12:35.898Z,21.08
2023-05-10T06:15:04.618Z,21.24
2023-05-10T06:17:32.659Z,21.33
2023-05-10T06:20:00.592Z,21.38
2023-05-10T06:22:28.495Z,21.42
2023-05-10T06:24:56.383Z,21.44
2023-05-10T06:27:24.310Z,21.57
2023-05-10T06:29:56.486Z,21.72
2023-05-10T06:32:30.244Z,21.83
2023-05-10T06:34:58.664Z,21.87
2023-05-10T06:37:26.601Z,21.91
2023-05-10T06:39:54.578Z,21.92
2023-05-10T06:42:22.490Z,21.96
2023-05-10T06:44:50.355Z,21.98
2023-05-10T06:47:18.328Z,21.97
2023-05-10T06:49:46.374Z,22.02
2023-05-10T06:52:14.233Z,22.11
2023-05-10T06:54:42.096Z,22.22
2023-05-10T06:57:23.257Z,22.23
2023-05-10T06:59:59.655Z,22.23
2023-05-10T07:02:27.784Z,22.19
2023-05-10T07:04:55.950Z,21.69
2023-05-10T07:07:23.879Z,21.41
2023-05-10T07:09:52.279Z,21.48
2023-05-10T07:12:20.252Z,21.55
2023-05-10T07:14:48.269Z,21.56
2023-05-10T07:17:16.371Z,21.50
2023-05-10T07:19:44.387Z,21.46
2023-05-10T07:22:12.582Z,21.34
2023-05-10T07:24:41.507Z,21.15
2023-05-10T07:27:10.048Z,20.98
2023-05-10T07:29:38.504Z,20.91
2023-05-10T07:32:06.961Z,20.97
2023-05-10T07:34:35.235Z,20.96
2023-05-10T07:37:03.191Z,20.93
2023-05-10T07:39:31.116Z,20.92
2023-05-10T07:41:59.035Z,20.87
2023-05-10T07:44:26.980Z,20.81
2023-05-10T07:46:54.973Z,20.84
2023-05-10T07:49:25.142Z,20.91
2023-05-10T07:51:53.034Z,20.93
2023-05-10T07:54:20.959Z,20.95
2023-05-10T07:56:49.259Z,20.94
2023-05-10T07:59:18.482Z,20.95
2023-05-10T08:01:46.495Z,20.97
2023-05-10T08:04:14.438Z,21.01
2023-05-10T08:06:42.626Z,21.00
2023-05-10T08:09:10.682Z,20.99
2023-05-10T08:11:38.846Z,21.04
2023-05-10T08:14:06.798Z,21.10
2023-05-10T08:16:35.493Z,21.09
2023-05-10T08:19:03.637Z,21.09
2023-05-10T08:21:32.312Z,21.12
2023-05-10T08:24:00.212Z,21.07
2023-05-10T08:26:28.178Z,21.00
2023-05-10T08:28:56.052Z,20.96
2023-05-10T08:31:24.134Z,21.01
2023-05-10T08:33:53.624Z,21.06
2023-05-10T08:36:22.940Z,21.10
2023-05-10T08:38:53.061Z,21.12
2023-05-10T08:41:27.749Z,21.15
2023-05-10T08:43:56.118Z,21.23
2023-05-10T08:46:24.564Z,21.32
2023-05-10T08:48:53.146Z,21.38
2023-05-10T08:51:27.621Z,21.44
2023-05-10T08:53:56.101Z,21.38
2023-05-10T08:56:25.134Z,21.35
2023-05-10T08:58:53.157Z,21.41
2023-05-10T09:01:22.296Z,21.47
2023-05-10T09:03:51.633Z,21.48
2023-05-10T09:06:19.817Z,21.53
2023-05-10T09:08:48.729Z,21.52
2023-05-10T09:11:17.226Z,21.47
2023-05-10T09:13:45.714Z,21.46
2023-05-10T09:16:21.370Z,21.43
2023-05-10T09:18:50.785Z,21.45
2023-05-10T09:21:20.702Z,21.50
2023-05-10T09:23:51.130Z,21.55
2023-05-10T09:26:23.938Z,21.61
2023-05-10T09:28:56.994Z,21.61
2023-05-10T09:31:28.261Z,21.61
2023-05-10T09:33:56.377Z,21.57
2023-05-10T09:36:24.396Z,21.56
2023-05-10T09:38:53.612Z,21.58
2023-05-10T09:41:23.874Z,21.56
2023-05-10T09:43:56.775Z,21.63
2023-05-10T09:46:24.858Z,21.70
2023-05-10T09:48:52.875Z,21.72
2023-05-10T09:51:21.344Z,21.75
2023-05-10T09:53:51.609Z,21.77
2023-05-10T09:56:35.165Z,21.80
2023-05-10T09:59:04.143Z,21.78
2023-05-10T10:01:32.380Z,21.75
2023-05-10T10:04:02.468Z,21.69
2023-05-10T10:06:30.879Z,21.77
2023-05-10T10:08:58.867Z,21.84
2023-05-10T10:11:26.884Z,21.90
2023-05-10T10:13:55.543Z,21.96
2023-05-10T10:16:24.235Z,21.96
2023-05-10T10:18:52.185Z,21.96
2023-05-10T10:21:21.361Z,21.94
2023-05-10T10:23:49.473Z,21.98
2023-05-10T10:26:19.265Z,22.02
2023-05-10T10:29:21.393Z,21.98
2023-05-10T10:32:01.114Z,22.02
2023-05-10T10:34:30.650Z,22.10
2023-05-10T10:36:59.084Z,22.18
2023-05-10T10:39:27.735Z,22.26
2023-05-10T10:41:57.806Z,22.32
2023-05-10T10:44:37.913Z,22.28
2023-05-10T10:47:25.132Z,22.25
2023-05-10T10:50:04.794Z,22.27
2023-05-10T10:52:36.753Z,22.37
2023-05-10T10:55:12.165Z,22.38
2023-05-10T10:57:53.481Z,22.47
2023-05-10T11:00:29.799Z,22.51
2023-05-10T11:03:01.038Z,22.50
2023-05-10T11:05:37.759Z,22.54
2023-05-10T11:08:11.754Z,22.56
2023-05-10T11:10:41.129Z,22.54
2023-05-10T11:13:11.138Z,22.62
2023-05-10T11:15:40.620Z,22.66
2023-05-10T11:18:24.393Z,22.57
2023-05-10T11:20:56.169Z,22.55
2023-05-10T11:23:25.121Z,22.49
2023-05-10T11:25:53.020Z,22.32
2023-05-10T11:28:20.955Z,22.23
2023-05-10T11:30:49.115Z,22.30
2023-05-10T11:33:18.827Z,22.35
2023-05-10T11:35:47.177Z,22.31
2023-05-10T11:38:15.252Z,22.38
2023-05-10T11:40:44.180Z,22.53
2023-05-10T11:43:12.371Z,22.72
2023-05-10T11:45:43.567Z,22.82
2023-05-10T11:48:11.576Z,22.85
2023-05-10T11:50:39.672Z,22.93
2023-05-10T11:53:07.605Z,23.03
2023-05-10T11:55:35.612Z,23.08
2023-05-10T11:58:03.768Z,23.08
2023-05-10T12:00:32.810Z,23.02
2023-05-10T12:03:02.273Z,23.00
2023-05-10T12:05:33.305Z,23.02
2023-05-10T12:08:15.113Z,23.12
2023-05-10T12:10:43.132Z,23.28
2023-05-10T12:13:15.442Z,23.40
2023-05-10T12:15:44.365Z,23.52
2023-05-10T12:18:13.658Z,23.55
2023-05-10T12:20:42.151Z,23.53
2023-05-10T12:23:10.946Z,23.56
2023-05-10T12:25:39.829Z,23.45
2023-05-10T12:30:55.754Z,23.37
2023-05-10T12:33:23.670Z,23.41
2023-05-10T12:35:54.179Z,23.43
2023-05-10T12:38:38.391Z,23.37
2023-05-10T12:41:09.454Z,23.23
2023-05-10T12:43:38.019Z,23.16
2023-05-10T12:46:13.617Z,23.22
2023-05-10T12:48:43.303Z,23.25
2023-05-10T12:51:12.895Z,23.17
2023-05-10T12:53:42.576Z,23.12
2023-05-10T12:56:12.524Z,23.21
2023-05-10T12:58:40.456Z,23.17
2023-05-10T13:03:54.782Z,23.11
2023-05-10T13:06:22.798Z,23.00
2023-05-10T13:08:50.785Z,22.99
2023-05-10T13:11:20.900Z,23.05
2023-05-10T13:13:48.884Z,23.22
2023-05-10T13:16:16.992Z,23.30
2023-05-10T13:18:45.153Z,23.31
2023-05-10T13:21:13.187Z,23.26
2023-05-10T13:23:41.210Z,23.25
2023-05-10T13:26:09.314Z,23.36
2023-05-10T13:28:37.362Z,23.56
2023-05-10T13:31:06.053Z,23.66
2023-05-10T13:33:34.082Z,23.69
2023-05-10T13:36:02.044Z,23.63
2023-05-10T13:38:30.084Z,23.57
2023-05-10T13:40:58.107Z,23.57
2023-05-10T13:43:26.109Z,23.57
2023-05-10T13:45:54.114Z,23.69
2023-05-10T13:48:22.191Z,23.92
2023-05-10T13:50:50.183Z,24.07
2023-05-10T13:53:18.349Z,24.05
2023-05-10T13:55:46.344Z,24.06
2023-05-10T13:58:14.410Z,24.10
2023-05-10T14:00:42.554Z,24.07
2023-05-10T14:03:12.405Z,24.05
2023-05-10T14:05:40.814Z,23.98
2023-05-10T14:08:10.430Z,23.93
2023-05-10T14:10:39.075Z,23.89
2023-05-10T14:13:07.515Z,23.74
2023-05-10T14:15:35.494Z,23.56
2023-05-10T14:18:03.688Z,23.46
2023-05-10T14:20:33.169Z,23.45
2023-05-10T14:23:01.472Z,23.42
2023-05-10T14:25:29.625Z,23.47
2023-05-10T14:27:57.804Z,23.62
2023-05-10T14:30:25.900Z,23.70
2023-05-10T14:32:55.172Z,23.67
2023-05-10T14:35:23.589Z,23.56
2023-05-10T14:37:51.810Z,23.50
2023-05-10T14:40:20.008Z,23.46
2023-05-10T14:42:48.087Z,23.40
2023-05-10T14:45:16.268Z,23.38
2023-05-10T14:47:44.550Z,23.39
2023-05-10T14:50:18.910Z,23.51
2023-05-10T14:52:52.891Z,23.61
2023-05-10T14:55:21.367Z,23.63
2023-05-10T14:57:51.388Z,23.71
2023-05-10T15:00:20.406Z,23.78
2023-05-10T15:02:49.464Z,23.70
2023-05-10T15:05:18.360Z,23.58
2023-05-10T15:07:46.920Z,23.43
2023-05-10T15:10:15.674Z,23.26
2023-05-10T15:12:43.691Z,23.10
2023-05-10T15:15:11.657Z,22.99
2023-05-10T15:17:39.764Z,22.89
2023-05-10T15:20:08.525Z,22.84
2023-05-10T15:22:36.851Z,22.88
2023-05-10T15:25:05.531Z,22.91
2023-05-10T15:27:33.759Z,22.89
2023-05-10T15:30:02.124Z,22.89
2023-05-10T15:32:30.370Z,22.95
2023-05-10T15:34:59.105Z,23.05
2023-05-10T15:37:27.348Z,23.12
2023-05-10T15:39:56.321Z,23.09
2023-05-10T15:42:25.569Z,23.06
2023-05-10T15:44:53.536Z,23.03
2023-05-10T15:47:21.513Z,22.96
2023-05-10T15:49:49.594Z,22.86
2023-05-10T15:52:19.297Z,22.74
2023-05-10T15:54:47.403Z,22.65
2023-05-10T15:57:15.388Z,22.58
2023-05-10T15:59:43.468Z,22.46
2023-05-10T16:02:12.334Z,22.37
2023-05-10T16:04:40.479Z,22.36
2023-05-10T16:07:08.434Z,22.45
2023-05-10T16:09:36.542Z,22.50
2023-05-10T16:12:04.586Z,22.40
2023-05-10T16:14:32.612Z,22.26
2023-05-10T16:17:00.769Z,22.16
2023-05-10T16:19:29.827Z,22.05
2023-05-10T16:21:58.047Z,21.93
2023-05-10T16:24:26.403Z,21.85
2023-05-10T16:26:54.357Z,21.79
2023-05-10T16:29:22.415Z,21.74
2023-05-10T16:31:50.435Z,21.68
2023-05-10T16:34:20.578Z,21.62
2023-05-10T16:36:48.518Z,21.56
2023-05-10T16:39:16.714Z,21.50
2023-05-10T16:41:45.203Z,21.42
2023-05-10T16:44:13.221Z,21.37
2023-05-10T16:46:41.222Z,21.26
2023-05-10T16:49:09.349Z,21.18
2023-05-10T16:51:37.344Z,21.14
2023-05-10T16:54:05.377Z,21.09
2023-05-10T16:56:33.404Z,21.04
2023-05-10T16:59:01.554Z,20.99
2023-05-10T17:01:29.785Z,20.93
2023-05-10T17:03:57.957Z,20.90
2023-05-10T17:06:26.092Z,20.85
2023-05-10T17:08:54.423Z,20.79
2023-05-10T17:11:22.451Z,20.72
2023-05-10T17:13:52.414Z,20.64
2023-05-10T17:16:21.466Z,20.58
2023-05-10T17:18:49.523Z,20.53
2023-05-10T17:21:17.637Z,20.50
2023-05-10T17:23:45.649Z,20.47
2023-05-10T17:26:13.613Z,20.43
2023-05-10T17:28:41.582Z,20.37
2023-05-10T17:31:09.824Z,20.29
2023-05-10T17:33:38.688Z,20.24
2023-05-10T17:36:07.004Z,20.16
2023-05-10T17:38:36.186Z,20.07
2023-05-10T17:41:04.278Z,19.98
2023-05-10T17:43:32.318Z,19.90
2023-05-10T17:46:00.486Z,19.82
2023-05-10T17:48:28.504Z,19.75
2023-05-10T17:50:56.593Z,19.68
2023-05-10T17:53:24.868Z,19.64
2023-05-10T17:55:53.836Z,19.61
2023-05-10T17:58:21.892Z,19.56
2023-05-10T18:00:49.930Z,19.51
2023-05-10T18:03:18.148Z,19.44
2023-05-10T18:05:47.811Z,19.38
2023-05-10T18:08:16.063Z,19.30
2023-05-10T18:10:44.097Z,19.23
2023-05-10T18:13:12.130Z,19.17
2023-05-10T18:15:40.138Z,19.10
2023-05-10T18:18:08.906Z,19.02
2023-05-10T18:20:37.451Z,18.95
2023-05-10T18:23:06.389Z,18.88
2023-05-10T18:25:34.526Z,18.81
2023-05-10T18:28:05.233Z,18.72
2023-05-10T18:30:33.185Z,18.61
2023-05-10T18:33:01.378Z,18.52
2023-05-10T18:35:29.516Z,18.44
2023-05-10T18:37:58.131Z,18.35
2023-05-10T18:40:27.050Z,18.28
2023-05-10T18:42:55.053Z,18.22
2023-05-10T18:45:23.097Z,18.15
2023-05-10T18:47:51.114Z,18.10
2023-05-10T18:50:19.900Z,18.03
2023-05-10T18:52:48.004Z,17.96
2023-05-10T18:55:16.419Z,17.86
2023-05-10T18:57:45.212Z,17.74
2023-05-10T19:00:13.631Z,17.65
2023-05-10T19:02:41.907Z,17.56
2023-05-10T19:05:10.314Z,17.48
2023-05-10T19:07:38.511Z,17.41
2023-05-10T19:10:07.002Z,17.34
2023-05-10T19:12:35.326Z,17.27
2023-05-10T19:15:03.394Z,17.19
2023-05-10T19:17:31.951Z,17.12
2023-05-10T19:20:00.121Z,17.04
2023-05-10T19:22:43.573Z,16.99
2023-05-10T19:25:17.546Z,16.93
2023-05-10T19:27:45.998Z,16.89
2023-05-10T19:30:13.991Z,16.85
2023-05-10T19:32:44.207Z,16.80
2023-05-10T19:35:13.221Z,16.78
2023-05-10T19:37:46.110Z,16.75
2023-05-10T19:40:18.602Z,16.72
2023-05-10T19:42:46.701Z,16.70
2023-05-10T19:45:15.908Z,16.68
2023-05-10T19:47:44.204Z,16.65
2023-05-10T19:50:12.698Z,16.58
2023-05-10T19:52:40.836Z,16.52
2023-05-10T19:55:09.373Z,16.48
2023-05-10T19:57:38.073Z,16.43
2023-05-10T20:00:06.851Z,16.39
2023-05-10T20:02:39.219Z,16.33
2023-05-10T20:05:07.785Z,16.27
2023-05-10T20:07:36.983Z,16.22
2023-05-10T20:10:05.249Z,16.19
2023-05-10T20:12:33.155Z,16.17
2023-05-10T20:15:01.125Z,16.15
2023-05-10T20:17:29.397Z,16.14
2023-05-10T20:19:57.348Z,16.12
2023-05-10T20:22:25.737Z,16.09
2023-05-10T20:24:55.835Z,16.04
2023-05-10T20:27:24.218Z,16.01
2023-05-10T20:29:52.225Z,15.98
2023-05-10T20:32:20.077Z,15.95
2023-05-10T20:34:48.222Z,15.91
2023-05-10T20:37:17.809Z,15.87
2023-05-10T20:39:45.703Z,15.81
2023-05-10T20:42:13.816Z,15.77
2023-05-10T20:44:42.053Z,15.74
2023-05-10T20:47:10.033Z,15.69
2023-05-10T20:49:38.112Z,15.64
2023-05-10T20:52:06.691Z,15.61
2023-05-10T20:54:34.601Z,15.54
2023-05-10T20:57:02.511Z,15.48
2023-05-10T20:59:30.652Z,15.44
2023-05-10T21:01:58.727Z,15.39
2023-05-10T21:04:27.228Z,15.33
2023-05-10T21:06:56.962Z,15.26
2023-05-10T21:09:24.906Z,15.17
2023-05-10T21:11:52.867Z,15.10
2023-05-10T21:14:20.847Z,15.04
2023-05-10T21:16:51.093Z,14.99
2023-05-10T21:19:19.127Z,14.95
2023-05-10T21:21:47.354Z,14.89
2023-05-10T21:24:15.345Z,14.83
2023-05-10T21:26:43.416Z,14.78
2023-05-10T21:29:11.363Z,14.74
2023-05-10T21:31:39.355Z,14.68
2023-05-10T21:34:07.335Z,14.63
2023-05-10T21:36:35.283Z,14.59
2023-05-10T21:39:03.357Z,14.53
2023-05-10T21:41:31.315Z,14.48
2023-05-10T21:43:59.249Z,14.42
2023-05-10T21:46:27.222Z,14.39
2023-05-10T21:48:56.161Z,14.36
2023-05-10T21:51:24.081Z,14.32
2023-05-10T21:53:52.030Z,14.27
2023-05-10T21:56:19.963Z,14.21
2023-05-10T21:58:47.834Z,14.16
2023-05-10T22:01:18.009Z,14.11
2023-05-10T22:03:46.283Z,14.04
2023-05-10T22:06:14.273Z,13.97
2023-05-10T22:08:42.219Z,13.90
2023-05-10T22:11:10.081Z,13.78
2023-05-10T22:13:38.028Z,13.67
2023-05-10T22:16:06.926Z,13.59
2023-05-10T22:18:34.883Z,13.54
2023-05-10T22:21:02.805Z,13.47
2023-05-10T22:23:30.818Z,13.43
2023-05-10T22:26:02.779Z,13.38
2023-05-10T22:28:30.689Z,13.33
2023-05-10T22:30:58.638Z,13.27
2023-05-10T22:33:26.547Z,13.19
2023-05-10T22:35:54.463Z,13.09
2023-05-10T22:38:22.436Z,13.03
2023-05-10T22:40:50.340Z,13.00
2023-05-10T22:43:18.269Z,12.95
2023-05-10T22:45:46.208Z,12.90
2023-05-10T22:48:15.481Z,12.87
2023-05-10T22:50:43.464Z,12.82
2023-05-10T22:53:11.446Z,12.76
2023-05-10T22:55:39.345Z,12.69
2023-05-10T22:58:07.559Z,12.63
2023-05-10T23:00:35.549Z,12.59
2023-05-10T23:03:05.018Z,12.55
2023-05-10T23:05:32.957Z,12.50
2023-05-10T23:08:00.842Z,12.45
2023-05-10T23:10:28.928Z,12.41
2023-05-10T23:12:56.880Z,12.37
2023-05-10T23:15:24.796Z,12.33
2023-05-10T23:17:52.758Z,12.29
2023-05-10T23:20:21.004Z,12.26
2023-05-10T23:22:49.616Z,12.23
2023-05-10T23:25:17.517Z,12.20
2023-05-10T23:27:45.468Z,12.15
2023-05-10T23:30:13.588Z,12.11
2023-05-10T23:32:41.523Z,12.07
2023-05-10T23:35:09.737Z,12.05
2023-05-10T23:37:37.653Z,12.04
2023-05-10T23:40:06.354Z,12.02
2023-05-10T23:42:34.294Z,12.03
2023-05-10T23:45:02.843Z,12.02
2023-05-10T23:47:30.746Z,12.02
2023-05-10T23:49:58.766Z,12.01
2023-05-10T23:52:26.740Z,12.01
2023-05-10T23:54:54.984Z,12.00
2023-05-10T23:57:22.937Z,12.00
2023-05-10T23:59:50.951Z,12.00
